Time;durP1;ratioP1;P1;durP2;ratioP2;P2;SDS_P1;SDS_P2;PMS_P1;PMS_P2;Temp;Humidity;BMP_temperature;BMP_pressure;BME280_temperature;BME280_humidity;BME280_pressure;Samples;Min_cycle;Max_cycle;Signal;HPM_P1;HPM_P2
2022/04/18 00:01:29;;;;;;;7.35;4.22;;;10.30;10.30;;;;;;5003599;28;20463;-74
2022/04/18 00:03:55;;;;;;;6.57;4.40;;;10.20;8.50;;;;;;4997259;28;20887;-73
2022/04/18 00:06:21;;;;;;;5.33;4.40;;;10.20;8.70;;;;;;4990017;28;20405;-74
2022/04/18 00:08:46;;;;;;;6.28;4.30;;;10.20;10.00;;;;;;4990537;28;20465;-74
2022/04/18 00:11:12;;;;;;;8.30;4.70;;;10.20;8.60;;;;;;4989347;28;20771;-75
2022/04/18 00:13:38;;;;;;;6.68;4.80;;;10.10;9.70;;;;;;4990675;28;20517;-75
2022/04/18 00:16:04;;;;;;;9.18;3.90;;;10.10;9.10;;;;;;4991638;28;20446;-74
2022/04/18 00:18:29;;;;;;;6.50;3.97;;;10.10;10.30;;;;;;4991094;28;20434;-75
2022/04/18 00:20:55;;;;;;;8.07;4.20;;;10.10;9.30;;;;;;4992823;28;20443;-75
2022/04/18 00:23:20;;;;;;;5.22;4.00;;;10.00;10.10;;;;;;4982001;28;20424;-75
2022/04/18 00:25:46;;;;;;;8.10;4.43;;;10.00;9.80;;;;;;4990204;28;20489;-74
2022/04/18 00:28:12;;;;;;;7.30;5.00;;;9.90;11.80;;;;;;4991449;28;20432;-74
2022/04/18 00:30:38;;;;;;;6.53;4.40;;;9.90;10.00;;;;;;4991146;28;20469;-73
2022/04/18 00:33:04;;;;;;;8.10;5.00;;;9.90;11.00;;;;;;4991363;28;20402;-75
2022/04/18 00:35:29;;;;;;;9.50;4.50;;;9.80;10.70;;;;;;4989797;28;20410;-74
2022/04/18 00:37:55;;;;;;;11.07;5.25;;;9.80;10.30;;;;;;4990345;28;20414;-74
2022/04/18 00:40:21;;;;;;;9.25;4.60;;;9.80;11.70;;;;;;4992201;28;20449;-74
2022/04/18 00:42:46;;;;;;;7.63;4.20;;;9.70;11.00;;;;;;4992262;28;20394;-75
2022/04/18 00:45:12;;;;;;;9.10;4.80;;;9.70;11.30;;;;;;4998102;28;20402;-76
2022/04/18 00:47:37;;;;;;;8.30;4.50;;;9.70;12.20;;;;;;5000284;28;20902;-76
2022/04/18 00:50:04;;;;;;;7.90;4.50;;;9.60;11.20;;;;;;4998755;28;20402;-74
2022/04/18 00:52:31;;;;;;;5.85;3.70;;;9.50;10.60;;;;;;5000605;28;20415;-75
2022/04/18 00:54:59;;;;;;;5.90;4.10;;;9.50;10.80;;;;;;4997643;28;20491;-75
2022/04/18 00:57:26;;;;;;;6.88;4.45;;;9.50;11.40;;;;;;4994894;28;20417;-74
2022/04/18 00:59:52;;;;;;;7.28;3.70;;;9.50;12.50;;;;;;4988574;28;20394;-75
2022/04/18 01:02:17;;;;;;;6.40;4.32;;;9.40;11.00;;;;;;4992294;28;20406;-74
2022/04/18 01:04:43;;;;;;;5.93;4.03;;;9.50;11.20;;;;;;4994940;28;20409;-74
2022/04/18 01:07:09;;;;;;;7.13;4.40;;;9.40;12.40;;;;;;4994323;28;20410;-75
2022/04/18 01:09:35;;;;;;;5.93;3.78;;;9.40;11.20;;;;;;4993874;28;20492;-75
2022/04/18 01:12:01;;;;;;;6.80;4.30;;;9.40;11.30;;;;;;4993149;28;21205;-75
2022/04/18 01:14:26;;;;;;;8.80;4.27;;;9.30;11.90;;;;;;4993220;28;20779;-75
2022/04/18 01:16:52;;;;;;;7.30;4.33;;;9.40;11.70;;;;;;4993099;28;20469;-74
2022/04/18 01:19:18;;;;;;;5.63;4.07;;;9.30;12.30;;;;;;4992565;28;20505;-73
2022/04/18 01:21:43;;;;;;;7.10;4.50;;;9.40;12.40;;;;;;4988083;28;20454;-74
2022/04/18 01:29:37;;;;;;;4.15;3.47;;;9.40;12.50;;;;;;5004110;28;20406;-73
2022/04/18 01:32:03;;;;;;;6.53;4.00;;;9.40;10.90;;;;;;4988299;28;20399;-76
2022/04/18 01:34:29;;;;;;;6.10;3.90;;;9.30;12.90;;;;;;4994105;28;20412;-75
2022/04/18 01:36:54;;;;;;;5.77;3.90;;;9.20;13.20;;;;;;4994855;28;20406;-75
2022/04/18 01:39:20;;;;;;;10.13;4.77;;;9.20;13.20;;;;;;4987407;28;20780;-76
2022/04/18 01:41:46;;;;;;;6.60;4.20;;;9.40;14.00;;;;;;4996724;28;20416;-75
2022/04/18 01:44:12;;;;;;;5.63;3.33;;;9.60;13.20;;;;;;4993690;28;20394;-75
2022/04/18 01:46:37;;;;;;;4.18;3.72;;;9.50;12.60;;;;;;5002464;28;20501;-75
2022/04/18 01:49:03;;;;;;;4.47;3.67;;;9.40;13.70;;;;;;5000494;28;20464;-75
2022/04/18 01:51:29;;;;;;;7.78;3.42;;;9.30;13.00;;;;;;4995351;28;20923;-74
2022/04/18 01:53:54;;;;;;;7.90;4.20;;;9.20;12.30;;;;;;4992361;28;20414;-74
2022/04/18 01:56:20;;;;;;;7.07;4.22;;;9.10;12.80;;;;;;4992850;28;20398;-76
2022/04/18 01:58:45;;;;;;;5.35;4.50;;;9.00;12.80;;;;;;4990939;28;20879;-74
2022/04/18 02:01:11;;;;;;;7.38;4.47;;;8.90;13.70;;;;;;4992695;28;20433;-74
2022/04/18 02:03:41;;;;;;;7.57;3.90;;;8.90;13.60;;;;;;4991387;28;20406;-75
2022/04/18 02:06:06;;;;;;;6.10;4.30;;;8.90;13.00;;;;;;4994095;28;20430;-74
2022/04/18 02:08:32;;;;;;;5.40;3.60;;;8.80;13.40;;;;;;5004685;28;20414;-75
2022/04/18 02:10:58;;;;;;;8.23;3.83;;;8.80;13.60;;;;;;5004218;28;20455;-73
2022/04/18 02:13:25;;;;;;;7.77;4.90;;;8.80;13.30;;;;;;5000286;28;20402;-73
2022/04/18 02:15:50;;;;;;;9.37;4.40;;;8.80;14.70;;;;;;4994609;28;20445;-74
2022/04/18 02:18:16;;;;;;;5.80;3.90;;;8.80;13.70;;;;;;4995299;28;20406;-74
2022/04/18 02:20:42;;;;;;;6.70;4.20;;;8.80;13.30;;;;;;4994257;28;20416;-73
2022/04/18 02:23:08;;;;;;;3.80;3.40;;;8.80;14.80;;;;;;4996491;28;20428;-74
2022/04/18 02:25:34;;;;;;;4.77;3.80;;;8.70;13.40;;;;;;4999651;28;20906;-74
2022/04/18 02:27:59;;;;;;;9.80;4.35;;;8.70;13.80;;;;;;4998332;28;20938;-74
2022/04/18 02:30:25;;;;;;;7.80;4.03;;;8.60;13.80;;;;;;4999513;28;20404;-74
2022/04/18 02:32:51;;;;;;;5.07;4.00;;;8.60;14.60;;;;;;4993790;28;20477;-74
2022/04/18 02:35:21;;;;;;;6.35;4.10;;;8.50;14.60;;;;;;4995644;28;20441;-75
2022/04/18 02:37:47;;;;;;;4.63;3.50;;;8.50;14.00;;;;;;4992519;28;20421;-74
2022/04/18 02:40:14;;;;;;;4.63;3.45;;;8.50;13.80;;;;;;4991503;28;20426;-74
2022/04/18 02:42:42;;;;;;;8.77;3.80;;;8.40;14.10;;;;;;4992295;28;20401;-75
2022/04/18 02:45:08;;;;;;;4.90;3.70;;;8.40;15.50;;;;;;4992231;28;20406;-74
2022/04/18 02:47:34;;;;;;;5.28;3.42;;;8.40;14.20;;;;;;4991907;28;20410;-74
2022/04/18 02:49:59;;;;;;;6.35;4.00;;;8.40;14.80;;;;;;4992697;28;20399;-75
2022/04/18 02:52:25;;;;;;;11.90;3.50;;;8.30;14.70;;;;;;4992071;28;20402;-76
2022/04/18 02:54:50;;;;;;;4.70;3.80;;;8.30;14.00;;;;;;4991909;28;20513;-74
2022/04/18 02:57:16;;;;;;;7.20;4.60;;;8.40;14.60;;;;;;4978476;28;20408;-74
2022/04/18 02:59:41;;;;;;;5.40;3.80;;;8.20;14.80;;;;;;4985221;28;20935;-76
2022/04/18 03:02:07;;;;;;;4.93;3.60;;;8.20;14.80;;;;;;4987609;28;20410;-74
2022/04/18 03:04:33;;;;;;;6.57;3.60;;;8.20;14.50;;;;;;4991571;28;20470;-74
2022/04/18 03:07:00;;;;;;;8.52;4.60;;;8.20;15.30;;;;;;4990534;28;20410;-73
2022/04/18 03:09:26;;;;;;;3.42;3.10;;;8.20;15.20;;;;;;4990740;28;20406;-74
2022/04/18 03:11:51;;;;;;;7.00;4.10;;;8.10;14.80;;;;;;4991781;28;20513;-74
2022/04/18 03:14:17;;;;;;;3.90;3.37;;;7.90;15.30;;;;;;4991308;28;20469;-74
2022/04/18 03:16:42;;;;;;;6.83;3.57;;;7.90;15.50;;;;;;4990715;28;20418;-74
2022/04/18 03:19:08;;;;;;;4.60;3.90;;;7.90;15.60;;;;;;4990730;28;20839;-75
2022/04/18 03:21:34;;;;;;;5.20;3.90;;;7.80;15.60;;;;;;4990980;28;20763;-75
2022/04/18 03:23:59;;;;;;;4.90;3.20;;;7.80;15.60;;;;;;4991985;28;20725;-75
2022/04/18 03:26:25;;;;;;;5.60;3.67;;;7.90;15.80;;;;;;4994245;28;20972;-74
2022/04/18 03:28:50;;;;;;;6.77;3.40;;;7.90;16.10;;;;;;4988464;28;20944;-74
2022/04/18 03:31:16;;;;;;;4.10;3.50;;;7.90;15.90;;;;;;4990810;28;20792;-74
2022/04/18 03:33:41;;;;;;;5.17;3.33;;;7.90;15.50;;;;;;4990261;28;20903;-73
2022/04/18 03:41:35;;;;;;;5.43;3.70;;;8.00;15.40;;;;;;4991256;28;20509;-75
2022/04/18 03:44:01;;;;;;;5.75;3.75;;;8.00;16.00;;;;;;4991207;28;20477;-74
2022/04/18 03:46:26;;;;;;;4.95;3.80;;;7.90;16.50;;;;;;4992368;28;20499;-75
2022/04/18 03:48:53;;;;;;;4.57;3.53;;;7.90;17.00;;;;;;4991453;28;20406;-74
2022/04/18 03:51:18;;;;;;;4.10;3.60;;;7.90;16.40;;;;;;4990517;28;21133;-74
2022/04/18 03:53:44;;;;;;;4.40;3.33;;;7.80;17.00;;;;;;4990957;28;20453;-75
2022/04/18 03:56:10;;;;;;;4.70;3.30;;;7.80;16.70;;;;;;4991854;28;20429;-74
2022/04/18 03:58:35;;;;;;;5.10;3.40;;;7.80;17.20;;;;;;4993503;28;20411;-75
2022/04/18 04:01:01;;;;;;;5.17;3.73;;;7.80;16.90;;;;;;4986517;28;20459;-74
2022/04/18 04:03:26;;;;;;;6.87;3.40;;;7.70;16.80;;;;;;4989983;28;20394;-74
2022/04/18 04:05:53;;;;;;;5.27;3.60;;;7.70;17.40;;;;;;4990742;28;20422;-75
2022/04/18 04:08:22;;;;;;;5.00;3.60;;;7.70;16.90;;;;;;4985591;28;20489;-74
2022/04/18 04:10:50;;;;;;;5.10;3.50;;;7.70;17.50;;;;;;4993229;28;20860;-73
2022/04/18 04:13:15;;;;;;;5.93;3.55;;;7.60;17.50;;;;;;5008038;28;20398;-74
2022/04/18 04:15:41;;;;;;;5.25;3.60;;;7.60;17.70;;;;;;4998942;28;20421;-75
2022/04/18 04:18:07;;;;;;;7.03;3.92;;;7.50;17.80;;;;;;4993138;28;20485;-75
2022/04/18 04:20:33;;;;;;;7.10;3.88;;;7.40;18.20;;;;;;4994189;28;20827;-75
2022/04/18 04:22:58;;;;;;;5.18;3.30;;;7.50;18.50;;;;;;4989047;28;20402;-75
2022/04/18 04:25:24;;;;;;;7.03;3.50;;;7.50;18.30;;;;;;4994331;28;20425;-73
2022/04/18 04:27:49;;;;;;;6.50;4.10;;;7.50;19.00;;;;;;4991055;28;20408;-73
2022/04/18 04:30:15;;;;;;;7.38;4.10;;;7.50;19.40;;;;;;4994762;28;20795;-74
2022/04/18 04:32:40;;;;;;;6.68;4.47;;;7.40;19.40;;;;;;5000793;28;20437;-74
2022/04/18 04:35:06;;;;;;;6.38;4.50;;;7.30;19.50;;;;;;5008730;28;20422;-74
2022/04/18 04:37:32;;;;;;;8.27;4.55;;;7.30;19.70;;;;;;5006328;28;20875;-74
2022/04/18 04:39:57;;;;;;;6.53;4.20;;;7.30;19.60;;;;;;5002562;28;20456;-73
2022/04/18 04:42:23;;;;;;;7.80;4.50;;;7.20;20.30;;;;;;4995882;28;20406;-73
2022/04/18 04:44:48;;;;;;;5.87;4.47;;;7.20;21.10;;;;;;4995393;28;20445;-73
2022/04/18 04:47:14;;;;;;;5.50;4.00;;;7.20;21.30;;;;;;4994628;28;20530;-73
2022/04/18 04:49:40;;;;;;;7.90;4.25;;;7.30;21.30;;;;;;4994865;28;20406;-74
2022/04/18 04:52:06;;;;;;;6.43;3.63;;;7.30;21.10;;;;;;4998031;28;20774;-73
2022/04/18 04:54:40;;;;;;;4.68;3.50;;;7.40;19.80;;;;;;4998668;28;20410;-73
2022/04/18 04:57:05;;;;;;;5.07;3.50;;;7.40;19.60;;;;;;4978165;28;20452;-74
2022/04/18 04:59:31;;;;;;;5.20;4.27;;;7.60;20.00;;;;;;4993944;28;20903;-74
2022/04/18 05:01:57;;;;;;;6.40;3.90;;;7.60;20.20;;;;;;4997944;28;20407;-74
2022/04/18 05:04:25;;;;;;;8.70;4.07;;;7.60;19.60;;;;;;4995265;28;20417;-73
2022/04/18 05:06:51;;;;;;;8.18;4.07;;;7.50;19.70;;;;;;4992650;28;20409;-73
2022/04/18 05:09:16;;;;;;;4.87;3.50;;;7.50;20.00;;;;;;4997200;28;20415;-75
2022/04/18 05:11:42;;;;;;;5.57;4.03;;;7.50;20.20;;;;;;4993130;28;20421;-74
2022/04/18 05:14:07;;;;;;;6.60;3.90;;;7.60;19.70;;;;;;4994548;28;20413;-74
2022/04/18 05:16:33;;;;;;;5.77;3.80;;;7.60;19.30;;;;;;4995695;28;20462;-74
2022/04/18 05:18:59;;;;;;;7.13;4.53;;;7.60;19.40;;;;;;4996113;28;20414;-74
2022/04/18 05:21:24;;;;;;;6.87;4.13;;;7.70;19.40;;;;;;4997969;28;20793;-74
2022/04/18 05:23:50;;;;;;;5.80;4.20;;;7.70;19.50;;;;;;4992804;28;20410;-74
2022/04/18 05:26:15;;;;;;;7.17;4.47;;;7.80;19.80;;;;;;4987809;28;20481;-74
2022/04/18 05:28:42;;;;;;;5.70;3.97;;;7.80;20.20;;;;;;4991618;28;20442;-74
2022/04/18 05:31:08;;;;;;;9.43;4.30;;;7.90;20.00;;;;;;4995417;28;20402;-73
2022/04/18 05:33:33;;;;;;;9.07;4.10;;;8.10;20.10;;;;;;4989280;28;20420;-73
2022/04/18 05:35:59;;;;;;;5.90;4.43;;;8.10;19.80;;;;;;4995636;28;20493;-75
2022/04/18 05:38:24;;;;;;;5.10;3.70;;;8.30;20.50;;;;;;4993173;28;20406;-73
2022/04/18 05:40:50;;;;;;;6.35;4.20;;;8.30;18.70;;;;;;4994839;28;20401;-73
2022/04/18 05:43:17;;;;;;;7.32;3.83;;;8.40;18.40;;;;;;4993591;28;20448;-73
2022/04/18 05:45:43;;;;;;;10.73;4.43;;;8.50;18.70;;;;;;4992495;28;20407;-73
2022/04/18 05:48:09;;;;;;;9.52;4.10;;;8.60;19.20;;;;;;4993850;28;20395;-75
2022/04/18 05:50:34;;;;;;;4.95;3.70;;;8.70;18.20;;;;;;4993016;28;20485;-74
2022/04/18 05:53:01;;;;;;;6.68;4.00;;;8.80;18.10;;;;;;4993347;28;20477;-73
2022/04/18 05:55:26;;;;;;;4.88;3.50;;;8.90;18.70;;;;;;4993499;28;20406;-74
2022/04/18 05:57:52;;;;;;;5.75;3.65;;;9.00;17.80;;;;;;4992578;28;20403;-75
2022/04/18 06:00:19;;;;;;;5.05;3.65;;;9.00;17.80;;;;;;4993469;28;20406;-75
2022/04/18 06:02:45;;;;;;;5.40;4.10;;;9.10;17.90;;;;;;4992950;28;20877;-75
2022/04/18 06:05:11;;;;;;;6.30;3.90;;;9.20;17.80;;;;;;4993340;28;20418;-74
2022/04/18 06:07:39;;;;;;;5.00;3.50;;;9.40;17.70;;;;;;4992445;28;20414;-74
2022/04/18 06:10:05;;;;;;;8.20;3.80;;;9.40;16.90;;;;;;4992623;28;20450;-73
2022/04/18 06:12:31;;;;;;;5.88;3.80;;;9.50;16.40;;;;;;4992144;28;20763;-73
2022/04/18 06:14:56;;;;;;;4.83;3.70;;;9.60;16.80;;;;;;4994082;28;20414;-73
2022/04/18 06:17:22;;;;;;;4.63;3.60;;;9.80;16.50;;;;;;4992734;28;20414;-73
2022/04/18 06:19:49;;;;;;;3.80;3.40;;;9.90;16.40;;;;;;4992404;28;20406;-73
2022/04/18 06:22:16;;;;;;;5.75;3.60;;;9.90;16.10;;;;;;4993395;28;20736;-73
2022/04/18 06:24:42;;;;;;;6.70;3.90;;;10.00;15.80;;;;;;4991599;28;20477;-73
2022/04/18 06:27:07;;;;;;;5.20;3.70;;;10.00;16.40;;;;;;4992864;28;20977;-74
2022/04/18 06:29:33;;;;;;;6.90;3.30;;;10.20;16.70;;;;;;4993001;28;20486;-73
2022/04/18 06:31:58;;;;;;;4.47;3.10;;;10.30;14.90;;;;;;4992644;28;20405;-73
2022/04/18 06:34:25;;;;;;;4.10;3.57;;;10.40;14.70;;;;;;4989726;28;20579;-74
2022/04/18 06:36:51;;;;;;;4.80;3.70;;;10.50;15.30;;;;;;4992049;28;20397;-74
2022/04/18 06:39:17;;;;;;;6.40;3.70;;;10.50;15.50;;;;;;4992873;28;20402;-74
2022/04/18 06:41:42;;;;;;;4.93;3.50;;;10.70;16.40;;;;;;4992450;28;20887;-74
2022/04/18 06:44:08;;;;;;;10.53;3.20;;;10.70;14.10;;;;;;4989218;28;20423;-74
2022/04/18 06:46:33;;;;;;;5.10;3.40;;;10.90;13.60;;;;;;4990935;28;20398;-75
2022/04/18 06:48:59;;;;;;;6.53;4.23;;;11.00;14.20;;;;;;4991308;28;20445;-74
2022/04/18 06:51:24;;;;;;;4.70;3.60;;;11.10;14.10;;;;;;4992337;28;20395;-74
2022/04/18 06:53:51;;;;;;;8.00;3.87;;;11.20;14.60;;;;;;4989530;28;20899;-76
2022/04/18 06:59:01;;;;;;;6.07;3.60;;;11.40;13.60;;;;;;5001507;28;20427;-75
2022/04/18 07:01:26;;;;;;;4.80;3.30;;;11.50;12.70;;;;;;4991538;28;20407;-76
2022/04/18 07:03:52;;;;;;;6.97;3.40;;;11.50;12.00;;;;;;4989478;28;20426;-75
2022/04/18 07:06:17;;;;;;;4.20;2.93;;;11.60;12.30;;;;;;4991940;28;20425;-75
2022/04/18 07:08:46;;;;;;;4.03;2.90;;;11.60;11.00;;;;;;4992537;28;20441;-73
2022/04/18 07:11:12;;;;;;;4.03;3.17;;;11.70;11.70;;;;;;4985933;28;20414;-73
2022/04/18 07:13:37;;;;;;;3.83;3.00;;;11.80;10.80;;;;;;4988421;28;20410;-74
2022/04/18 07:16:04;;;;;;;7.23;3.47;;;11.80;11.60;;;;;;4992532;28;20403;-73
2022/04/18 07:18:29;;;;;;;7.55;3.63;;;11.80;11.90;;;;;;4995774;28;20411;-74
2022/04/18 07:20:55;;;;;;;5.40;3.53;;;12.00;12.50;;;;;;4991430;28;20410;-73
2022/04/18 07:23:20;;;;;;;5.10;3.53;;;12.00;11.50;;;;;;4991794;28;20780;-74
2022/04/18 07:25:46;;;;;;;5.68;3.55;;;12.10;12.50;;;;;;4989255;28;20410;-73
2022/04/18 07:28:11;;;;;;;5.93;3.40;;;12.20;11.90;;;;;;4991430;28;20418;-73
2022/04/18 07:30:37;;;;;;;4.30;3.40;;;12.30;11.90;;;;;;4988682;28;20497;-75
2022/04/18 07:33:03;;;;;;;4.30;3.20;;;12.40;10.10;;;;;;4991507;28;20402;-74
2022/04/18 07:35:28;;;;;;;4.30;3.40;;;12.40;10.50;;;;;;4987566;28;20780;-75
2022/04/18 07:40:38;;;;;;;3.78;3.25;;;12.70;10.90;;;;;;4990981;28;20448;-76
2022/04/18 07:43:03;;;;;;;4.17;3.20;;;12.70;10.90;;;;;;4990124;28;20404;-76
2022/04/18 07:45:29;;;;;;;5.50;2.87;;;12.80;10.20;;;;;;4989763;28;20458;-75
2022/04/18 07:47:55;;;;;;;5.50;3.23;;;12.80;8.90;;;;;;4987432;28;20505;-75
2022/04/18 07:51:31;;;;;;;4.93;3.05;;;12.90;8.70;;;;;;4983931;28;20403;-74
2022/04/18 07:53:06;;;;;;;4.60;3.50;;;12.90;8.80;;;;;;4984169;28;20879;-74
2022/04/18 07:55:31;;;;;;;5.80;4.17;;;13.00;9.90;;;;;;4981803;28;20467;-74
2022/04/18 07:57:57;;;;;;;6.23;3.83;;;13.10;10.40;;;;;;4987894;28;20415;-74
2022/04/18 08:00:23;;;;;;;6.20;3.20;;;13.20;10.40;;;;;;4984977;28;20482;-75
2022/04/18 08:02:48;;;;;;;4.30;3.33;;;13.30;9.70;;;;;;4986095;28;20469;-75
2022/04/18 08:05:14;;;;;;;5.60;3.53;;;13.30;10.40;;;;;;4987471;28;20492;-74
2022/04/18 08:07:39;;;;;;;4.90;3.45;;;13.40;9.70;;;;;;4994460;28;20434;-76
2022/04/18 08:10:05;;;;;;;5.17;3.30;;;13.40;9.40;;;;;;5000681;28;20758;-76
2022/04/18 08:12:31;;;;;;;5.22;3.40;;;13.50;9.00;;;;;;4991932;28;20420;-76
2022/04/18 08:14:57;;;;;;;5.53;3.60;;;13.50;9.60;;;;;;5000357;28;20423;-74
2022/04/18 08:17:22;;;;;;;6.43;3.75;;;13.70;9.60;;;;;;4993456;28;20412;-75
2022/04/18 08:19:48;;;;;;;11.18;3.70;;;13.70;9.10;;;;;;4995094;28;20420;-75
2022/04/18 08:22:13;;;;;;;4.77;3.70;;;13.80;8.60;;;;;;4986465;28;20405;-75
2022/04/18 08:24:39;;;;;;;3.83;3.40;;;13.80;9.80;;;;;;4989520;28;20410;-75
2022/04/18 08:27:05;;;;;;;4.40;3.70;;;13.90;8.60;;;;;;4990827;28;20416;-78
2022/04/18 08:29:30;;;;;;;7.47;3.70;;;14.00;8.50;;;;;;4987097;28;20430;-75
2022/04/18 08:31:56;;;;;;;11.00;3.90;;;14.10;8.20;;;;;;4991908;28;20398;-76
2022/04/18 08:34:21;;;;;;;4.90;3.58;;;14.20;7.60;;;;;;4991392;28;20418;-76
2022/04/18 08:36:47;;;;;;;8.57;3.50;;;14.20;9.00;;;;;;4995020;28;20502;-77
2022/04/18 08:39:12;;;;;;;6.73;4.00;;;14.30;7.40;;;;;;4990092;28;20482;-76
2022/04/18 08:41:44;;;;;;;5.20;3.57;;;14.30;7.40;;;;;;4996535;28;20399;-76
2022/04/18 08:44:11;;;;;;;5.53;3.60;;;14.30;7.80;;;;;;4998270;28;20398;-75
2022/04/18 08:46:37;;;;;;;6.70;3.80;;;14.40;6.60;;;;;;4998778;28;20433;-76
2022/04/18 08:54:33;;;;;;;6.90;3.50;;;14.60;5.30;;;;;;4988339;28;20419;-75
2022/04/18 08:56:59;;;;;;;6.10;3.77;;;14.60;5.40;;;;;;4989348;28;20415;-77
2022/04/18 08:59:24;;;;;;;5.00;3.30;;;14.60;5.50;;;;;;4990390;28;20759;-76
2022/04/18 09:01:52;;;;;;;4.53;3.20;;;14.60;5.40;;;;;;4991013;28;20837;-75
2022/04/18 09:04:22;;;;;;;4.00;3.28;;;14.70;5.60;;;;;;4990714;28;20433;-75
2022/04/18 09:06:48;;;;;;;4.67;3.50;;;14.80;5.50;;;;;;4996908;28;20406;-74
2022/04/18 09:09:14;;;;;;;5.10;3.35;;;14.90;5.70;;;;;;4996869;28;20420;-75
2022/04/18 09:11:40;;;;;;;4.40;3.53;;;14.90;6.00;;;;;;4997758;28;20439;-76
2022/04/18 09:14:08;;;;;;;5.22;3.40;;;15.10;6.90;;;;;;4999948;28;20570;-74
2022/04/18 09:16:35;;;;;;;5.82;3.85;;;15.20;7.90;;;;;;4990822;28;20398;-76
2022/04/18 09:19:09;;;;;;;5.57;3.20;;;15.30;7.00;;;;;;4989556;28;20864;-74
2022/04/18 09:21:58;;;;;;;6.40;3.83;;;15.40;6.70;;;;;;4991937;28;20444;-75
2022/04/18 09:24:34;;;;;;;7.03;3.72;;;15.50;7.50;;;;;;4991603;28;20772;-74
2022/04/18 09:27:29;;;;;;;4.43;3.50;;;15.60;7.00;;;;;;4991365;28;20490;-73
2022/04/18 09:30:11;;;;;;;5.35;3.55;;;15.70;5.20;;;;;;4994333;28;20414;-74
2022/04/18 09:32:41;;;;;;;5.28;3.40;;;15.70;5.10;;;;;;4991990;28;20449;-74
2022/04/18 09:35:07;;;;;;;5.00;3.53;;;15.70;5.40;;;;;;4991374;28;20418;-75
2022/04/18 09:37:33;;;;;;;4.78;3.60;;;15.80;4.40;;;;;;4996141;28;20399;-73
2022/04/18 09:39:59;;;;;;;5.22;3.63;;;15.80;4.00;;;;;;4978418;28;20498;-74
2022/04/18 09:42:27;;;;;;;3.70;3.40;;;15.80;5.30;;;;;;4993038;28;20774;-76
2022/04/18 09:44:53;;;;;;;5.93;3.60;;;15.90;3.10;;;;;;4999460;28;20403;-75
2022/04/18 09:47:21;;;;;;;5.47;4.00;;;15.90;3.80;;;;;;4997027;28;20456;-75
2022/04/18 09:49:47;;;;;;;9.03;4.00;;;16.00;4.20;;;;;;4996294;28;20410;-75
2022/04/18 09:52:17;;;;;;;7.47;3.40;;;16.10;3.50;;;;;;4998218;28;20413;-76
2022/04/18 09:54:54;;;;;;;4.50;3.50;;;16.20;2.90;;;;;;4991995;28;20497;-76
2022/04/18 09:57:28;;;;;;;4.47;3.17;;;16.30;1.40;;;;;;4992016;28;20456;-74
2022/04/18 09:59:56;;;;;;;3.53;3.20;;;16.40;1.30;;;;;;5003917;28;20403;-75
2022/04/18 10:02:28;;;;;;;3.40;3.10;;;16.50;1.90;;;;;;5000468;28;20426;-76
2022/04/18 10:04:54;;;;;;;4.80;3.20;;;16.50;1.40;;;;;;4997599;28;20506;-76
2022/04/18 10:07:20;;;;;;;3.20;2.90;;;16.50;1.00;;;;;;5002949;28;20409;-76
2022/04/18 10:09:46;;;;;;;3.85;2.70;;;16.50;1.00;;;;;;4993727;28;20470;-77
2022/04/18 10:12:13;;;;;;;4.73;3.27;;;16.40;1.00;;;;;;4995706;28;20402;-76
2022/04/18 10:14:40;;;;;;;5.67;3.20;;;16.60;1.70;;;;;;4986037;28;20431;-76
2022/04/18 10:17:08;;;;;;;4.68;3.47;;;16.70;1.20;;;;;;4989009;28;21005;-74
2022/04/18 10:19:55;;;;;;;2.80;2.60;;;16.80;1.40;;;;;;4988253;28;20407;-74
2022/04/18 10:22:35;;;;;;;3.20;2.90;;;16.90;1.00;;;;;;4987879;28;20434;-74
2022/04/18 10:25:36;;;;;;;4.50;3.00;;;17.10;1.00;;;;;;4989565;28;20445;-76
2022/04/18 10:28:14;;;;;;;4.60;3.20;;;17.20;1.00;;;;;;4987313;28;20676;-75
2022/04/18 10:31:12;;;;;;;5.05;2.88;;;17.20;1.00;;;;;;4988013;28;20799;-75
2022/04/18 10:33:40;;;;;;;4.40;3.00;;;17.30;1.00;;;;;;4980267;28;20741;-73
2022/04/18 10:36:07;;;;;;;4.53;2.80;;;17.30;1.00;;;;;;4986457;28;20414;-76
2022/04/18 10:38:36;;;;;;;4.00;3.15;;;17.50;1.00;;;;;;4988396;28;20472;-75
2022/04/18 10:41:15;;;;;;;3.70;3.10;;;17.50;1.00;;;;;;4990688;28;20837;-75
2022/04/18 10:44:03;;;;;;;4.75;2.95;;;17.50;1.00;;;;;;4994241;28;20396;-75
2022/04/18 10:46:29;;;;;;;3.42;2.90;;;17.50;1.00;;;;;;4994599;28;20903;-76
2022/04/18 10:48:56;;;;;;;4.60;2.50;;;17.50;1.00;;;;;;4997424;28;20414;-76
2022/04/18 10:51:36;;;;;;;3.70;2.53;;;17.50;1.00;;;;;;4995569;28;20414;-74
2022/04/18 10:54:09;;;;;;;3.08;2.60;;;17.60;1.00;;;;;;4987835;28;20899;-75
2022/04/18 10:57:11;;;;;;;3.53;2.47;;;17.70;1.00;;;;;;4989484;28;20413;-76
2022/04/18 10:59:44;;;;;;;2.42;2.10;;;17.70;1.00;;;;;;4990117;28;20414;-74
2022/04/18 11:02:36;;;;;;;3.67;2.50;;;17.80;1.00;;;;;;4988042;28;20404;-74
2022/04/18 11:05:01;;;;;;;4.65;2.40;;;17.70;1.00;;;;;;4992685;28;20398;-74
2022/04/18 11:07:48;;;;;;;4.20;2.50;;;17.70;1.00;;;;;;4990747;28;20909;-75
2022/04/18 11:10:22;;;;;;;2.50;2.30;;;17.70;1.00;;;;;;4989728;28;20868;-74
2022/04/18 11:12:50;;;;;;;3.83;2.60;;;17.60;1.00;;;;;;4995416;28;20805;-76
2022/04/18 11:15:17;;;;;;;3.08;2.60;;;17.70;1.00;;;;;;4987344;28;20903;-75
2022/04/18 11:17:43;;;;;;;5.43;2.70;;;17.80;1.00;;;;;;4997314;28;20414;-75
2022/04/18 11:20:30;;;;;;;4.50;2.85;;;17.90;1.00;;;;;;4988253;28;20767;-76
2022/04/18 11:23:16;;;;;;;3.78;2.70;;;18.00;1.00;;;;;;4997937;28;20387;-76
2022/04/18 11:25:56;;;;;;;4.47;2.60;;;18.10;1.00;;;;;;4997939;28;20445;-75
2022/04/18 11:28:23;;;;;;;3.77;2.63;;;18.20;1.00;;;;;;4993186;28;20461;-75
2022/04/18 11:30:49;;;;;;;3.78;2.75;;;18.20;1.00;;;;;;4999894;28;20404;-75
2022/04/18 11:33:15;;;;;;;4.63;2.80;;;18.20;1.00;;;;;;5002240;28;20473;-75
2022/04/18 11:35:41;;;;;;;6.45;3.20;;;18.30;1.00;;;;;;4990556;28;20501;-75
2022/04/18 11:38:08;;;;;;;3.50;3.05;;;18.30;1.00;;;;;;4991068;28;20440;-75
2022/04/18 11:40:38;;;;;;;6.07;3.10;;;18.40;1.00;;;;;;4989981;28;20421;-75
2022/04/18 11:43:17;;;;;;;4.53;3.30;;;18.30;1.00;;;;;;4994085;28;20402;-76
2022/04/18 11:45:43;;;;;;;3.53;3.00;;;18.40;1.00;;;;;;4994855;28;20934;-76
2022/04/18 11:48:13;;;;;;;3.60;2.75;;;18.40;1.00;;;;;;4993449;28;20428;-75
2022/04/18 11:50:42;;;;;;;4.70;3.33;;;18.40;1.00;;;;;;4996087;28;20398;-75
2022/04/18 11:53:09;;;;;;;3.50;2.95;;;18.60;1.00;;;;;;4989833;28;20418;-74
2022/04/18 11:56:02;;;;;;;4.63;3.20;;;18.60;1.00;;;;;;4986270;28;20414;-75
2022/04/18 11:58:28;;;;;;;3.00;2.72;;;18.50;1.00;;;;;;4986146;28;20403;-75
2022/04/18 12:09:10;;;;;;;3.40;3.10;;;18.70;1.00;;;;;;4988060;28;20497;-75
2022/04/18 12:11:37;;;;;;;4.05;3.40;;;18.80;1.00;;;;;;4987542;28;20967;-74
2022/04/18 12:14:02;;;;;;;3.60;3.20;;;19.00;1.00;;;;;;4988489;28;20424;-73
2022/04/18 12:16:33;;;;;;;8.83;2.87;;;19.20;1.00;;;;;;4995133;28;20438;-74
2022/04/18 12:18:59;;;;;;;5.35;3.80;;;19.30;1.00;;;;;;4994668;28;20431;-74
2022/04/18 12:21:25;;;;;;;10.70;5.00;;;19.50;1.00;;;;;;4997557;28;20402;-75
2022/04/18 12:23:59;;;;;;;5.55;2.97;;;19.60;1.00;;;;;;4987023;28;20889;-75
2022/04/18 12:26:30;;;;;;;4.97;3.08;;;19.60;1.00;;;;;;4986875;28;20493;-75
2022/04/18 12:29:10;;;;;;;3.20;2.90;;;19.70;1.00;;;;;;4986629;28;20553;-76
2022/04/18 12:31:43;;;;;;;3.70;2.70;;;19.70;1.00;;;;;;4984967;28;20456;-76
2022/04/18 12:34:19;;;;;;;5.72;2.90;;;19.70;1.00;;;;;;4986805;28;20421;-76
2022/04/18 12:36:45;;;;;;;6.00;3.25;;;19.90;1.00;;;;;;4989285;28;20767;-75
2022/04/18 12:39:25;;;;;;;3.10;2.80;;;19.90;1.00;;;;;;4995326;28;20399;-74
2022/04/18 12:42:03;;;;;;;4.43;2.90;;;19.90;1.00;;;;;;4991288;28;20906;-75
2022/04/18 12:44:29;;;;;;;3.78;3.20;;;20.00;1.00;;;;;;4990714;28;20419;-75
2022/04/18 12:46:54;;;;;;;3.60;2.85;;;20.00;1.00;;;;;;4991575;28;20402;-76
2022/04/18 12:49:20;;;;;;;4.28;3.30;;;20.00;1.00;;;;;;4987492;28;20406;-74
2022/04/18 12:51:50;;;;;;;4.83;2.80;;;20.20;1.00;;;;;;4991223;28;20484;-74
2022/04/18 12:54:23;;;;;;;3.95;3.10;;;20.40;1.00;;;;;;4993092;28;20524;-76
2022/04/18 12:56:49;;;;;;;5.87;2.90;;;20.10;1.00;;;;;;4991024;28;20764;-76
2022/04/18 12:59:24;;;;;;;5.27;3.00;;;20.00;1.00;;;;;;4990747;28;20398;-74
2022/04/18 13:01:49;;;;;;;8.63;3.00;;;20.00;1.00;;;;;;4989703;28;20406;-76
2022/04/18 13:04:28;;;;;;;4.78;3.20;;;20.00;1.00;;;;;;4990845;28;20772;-76
2022/04/18 13:07:04;;;;;;;3.88;3.10;;;20.20;1.00;;;;;;4990843;28;20410;-77
2022/04/18 13:09:31;;;;;;;5.30;2.70;;;20.30;1.00;;;;;;4988415;28;20883;-77
2022/04/18 13:12:07;;;;;;;6.00;2.70;;;20.40;1.00;;;;;;4991065;28;20862;-76
2022/04/18 13:14:36;;;;;;;4.05;3.10;;;20.40;1.00;;;;;;4989840;28;20420;-76
2022/04/18 13:17:09;;;;;;;3.35;2.78;;;20.40;1.00;;;;;;4988542;28;20449;-75
2022/04/18 13:19:36;;;;;;;3.60;2.90;;;20.40;1.00;;;;;;4988104;28;20417;-75
2022/04/18 13:22:02;;;;;;;4.80;3.00;;;20.40;1.00;;;;;;4990987;28;20812;-76
2022/04/18 13:24:28;;;;;;;4.20;3.10;;;20.40;1.00;;;;;;4990265;28;20410;-77
2022/04/18 13:26:55;;;;;;;5.60;3.10;;;20.20;1.00;;;;;;4993350;28;20840;-76
2022/04/18 13:29:21;;;;;;;3.80;3.00;;;20.30;1.00;;;;;;4991435;28;20394;-75